createdAt,value
2023-06-19T00:01:10.402Z,26.40
2023-06-19T00:03:37.499Z,26.10
2023-06-19T00:06:04.654Z,26.40
2023-06-19T00:08:31.858Z,26.30
2023-06-19T00:10:59.364Z,26.10
2023-06-19T00:13:26.391Z,25.80
2023-06-19T00:15:53.609Z,26.00
2023-06-19T00:18:21.054Z,26.30
2023-06-19T00:20:48.546Z,26.20
2023-06-19T00:23:18.078Z,26.70
2023-06-19T00:25:45.801Z,25.30
2023-06-19T00:28:15.830Z,25.90
2023-06-19T00:30:43.396Z,26.00
2023-06-19T00:33:10.675Z,25.70
2023-06-19T00:35:37.804Z,26.00
2023-06-19T00:38:06.766Z,25.80
2023-06-19T00:40:35.166Z,25.90
2023-06-19T00:43:02.906Z,25.70
2023-06-19T00:45:30.260Z,25.70
2023-06-19T00:47:59.151Z,25.80
2023-06-19T00:50:28.994Z,25.70
2023-06-19T00:52:56.151Z,25.70
2023-06-19T00:55:23.586Z,25.70
2023-06-19T00:57:51.980Z,26.20
2023-06-19T01:00:19.324Z,26.00
2023-06-19T01:02:48.625Z,26.10
2023-06-19T01:05:16.232Z,26.00
2023-06-19T01:08:00.602Z,26.20
2023-06-19T01:10:37.798Z,26.00
2023-06-19T01:13:33.970Z,26.00
2023-06-19T01:16:04.806Z,26.40
2023-06-19T01:18:33.135Z,25.90
2023-06-19T01:21:19.047Z,25.90
2023-06-19T01:23:46.635Z,26.00
2023-06-19T01:26:14.065Z,25.80
2023-06-19T01:28:43.842Z,25.80
2023-06-19T01:31:22.283Z,25.80
2023-06-19T01:33:51.535Z,25.60
2023-06-19T01:36:20.498Z,25.30
2023-06-19T01:38:49.611Z,25.10
2023-06-19T01:41:18.353Z,26.60
2023-06-19T01:43:46.872Z,25.30
2023-06-19T01:46:13.871Z,25.30
2023-06-19T01:48:41.145Z,25.30
2023-06-19T01:51:08.498Z,25.60
2023-06-19T01:53:35.996Z,25.40
2023-06-19T01:56:03.652Z,25.50
2023-06-19T01:58:30.993Z,25.00
2023-06-19T02:00:57.980Z,25.40
2023-06-19T02:03:25.099Z,25.30
2023-06-19T02:05:53.778Z,25.40
2023-06-19T02:08:21.048Z,25.40
2023-06-19T02:10:48.118Z,25.60
2023-06-19T02:13:15.144Z,25.60
2023-06-19T02:15:42.714Z,25.50
2023-06-19T02:18:10.072Z,25.50
2023-06-19T02:20:37.110Z,25.60
2023-06-19T02:23:04.114Z,25.30
2023-06-19T02:25:31.128Z,24.40
2023-06-19T02:27:58.163Z,25.60
2023-06-19T02:30:25.471Z,25.20
2023-06-19T02:32:52.693Z,25.40
2023-06-19T02:37:48.256Z,25.60
2023-06-19T02:40:15.458Z,25.40
2023-06-19T02:42:42.770Z,25.30
2023-06-19T02:45:10.211Z,25.20
2023-06-19T02:47:37.407Z,25.20
2023-06-19T02:50:06.764Z,25.20
2023-06-19T02:52:33.742Z,25.30
2023-06-19T02:55:00.912Z,25.10
2023-06-19T02:57:27.929Z,25.00
2023-06-19T02:59:55.494Z,25.10
2023-06-19T03:02:22.717Z,25.10
2023-06-19T03:04:50.698Z,25.20
2023-06-19T03:07:18.178Z,25.10
2023-06-19T03:09:45.228Z,25.10
2023-06-19T03:12:12.325Z,25.20
2023-06-19T03:14:39.405Z,24.80
2023-06-19T03:17:07.011Z,24.50
2023-06-19T03:19:35.357Z,24.70
2023-06-19T03:22:02.694Z,24.70
2023-06-19T03:24:29.820Z,24.60
2023-06-19T03:27:10.199Z,24.80
2023-06-19T03:29:37.211Z,24.80
2023-06-19T03:32:07.796Z,24.90
2023-06-19T03:34:36.080Z,24.90
2023-06-19T03:37:07.474Z,24.70
2023-06-19T03:39:35.562Z,24.90
2023-06-19T03:42:07.335Z,24.90
2023-06-19T03:44:35.288Z,24.90
2023-06-19T03:47:02.308Z,25.00
2023-06-19T03:49:29.557Z,25.20
2023-06-19T03:51:56.895Z,25.00
2023-06-19T03:54:24.710Z,24.80
2023-06-19T03:56:52.308Z,24.50
2023-06-19T03:59:19.324Z,24.50
2023-06-19T04:01:46.424Z,24.50
2023-06-19T04:04:13.457Z,23.90
2023-06-19T04:06:40.478Z,24.20
2023-06-19T04:09:07.684Z,24.20
2023-06-19T04:11:34.843Z,23.30
2023-06-19T04:14:02.851Z,24.00
2023-06-19T04:16:30.831Z,23.70
2023-06-19T04:18:57.840Z,23.40
2023-06-19T04:21:25.636Z,23.30
2023-06-19T04:23:52.743Z,23.30
2023-06-19T04:26:20.079Z,23.20
2023-06-19T04:28:47.277Z,23.50
2023-06-19T04:31:19.056Z,23.60
2023-06-19T04:33:47.068Z,24.00
2023-06-19T04:36:15.310Z,23.90
2023-06-19T04:38:43.142Z,24.00
2023-06-19T04:41:10.281Z,24.30
2023-06-19T04:43:37.306Z,24.20
2023-06-19T04:46:05.123Z,24.10
2023-06-19T04:48:32.544Z,24.10
2023-06-19T04:51:01.729Z,23.80
2023-06-19T04:53:28.991Z,23.80
2023-06-19T04:55:56.377Z,23.40
2023-06-19T04:58:23.610Z,23.80
2023-06-19T05:00:53.745Z,23.90
2023-06-19T05:03:20.845Z,23.70
2023-06-19T05:08:15.421Z,23.40
2023-06-19T05:10:44.346Z,23.80
2023-06-19T05:13:13.340Z,23.80
2023-06-19T05:15:40.332Z,23.80
2023-06-19T05:18:07.668Z,23.80
2023-06-19T05:20:34.703Z,23.80
2023-06-19T05:23:01.800Z,23.80
2023-06-19T05:25:28.922Z,24.00
2023-06-19T05:27:56.068Z,23.90
2023-06-19T05:30:23.600Z,24.10
2023-06-19T05:32:50.806Z,24.00
2023-06-19T05:35:17.776Z,24.00
2023-06-19T05:37:45.114Z,24.20
2023-06-19T05:40:12.414Z,24.30
2023-06-19T05:42:39.871Z,24.10
2023-06-19T05:45:07.758Z,24.30
2023-06-19T05:47:34.981Z,24.20
2023-06-19T05:50:01.976Z,24.10
2023-06-19T05:52:29.011Z,24.30
2023-06-19T05:54:56.172Z,24.30
2023-06-19T05:57:23.224Z,24.40
2023-06-19T05:59:53.958Z,24.30
2023-06-19T06:02:21.616Z,24.20
2023-06-19T06:04:48.812Z,24.30
2023-06-19T06:07:15.864Z,24.30
2023-06-19T06:09:42.954Z,24.40
2023-06-19T06:12:10.216Z,24.20
2023-06-19T06:14:37.230Z,24.30
2023-06-19T06:17:06.451Z,24.20
2023-06-19T06:19:33.553Z,24.10
2023-06-19T06:22:00.554Z,24.10
2023-06-19T06:24:27.808Z,24.30
2023-06-19T06:26:54.957Z,24.50
2023-06-19T06:31:49.413Z,24.30
2023-06-19T06:34:16.630Z,24.20
2023-06-19T06:36:52.769Z,24.30
2023-06-19T06:39:28.583Z,24.10
2023-06-19T06:41:55.742Z,24.00
2023-06-19T06:44:23.545Z,23.90
2023-06-19T06:46:52.935Z,23.60
2023-06-19T06:49:20.104Z,23.70
2023-06-19T06:51:47.699Z,24.20
2023-06-19T06:54:14.798Z,24.20
2023-06-19T06:56:41.798Z,24.10
2023-06-19T06:59:08.758Z,23.60
2023-06-19T07:01:35.742Z,24.00
2023-06-19T07:04:02.766Z,22.90
2023-06-19T07:06:29.739Z,24.00
2023-06-19T07:08:56.708Z,23.80
2023-06-19T07:11:23.656Z,23.50
2023-06-19T07:13:50.859Z,23.80
2023-06-19T07:16:17.821Z,23.80
2023-06-19T07:18:44.894Z,23.80
2023-06-19T07:21:16.194Z,23.70
2023-06-19T07:23:46.678Z,23.90
2023-06-19T07:26:14.122Z,24.00
2023-06-19T07:28:42.007Z,24.00
2023-06-19T07:31:09.201Z,24.00
2023-06-19T07:33:36.332Z,24.20
2023-06-19T07:36:03.905Z,24.10
2023-06-19T07:38:31.022Z,24.20
2023-06-19T07:40:58.095Z,24.20
2023-06-19T07:43:25.099Z,24.40
2023-06-19T07:45:52.336Z,24.30
2023-06-19T07:48:19.446Z,24.40
2023-06-19T07:50:47.151Z,24.60
2023-06-19T07:53:14.144Z,24.00
2023-06-19T07:55:42.307Z,24.60
2023-06-19T07:58:09.300Z,24.60
2023-06-19T08:00:36.702Z,24.50
2023-06-19T08:03:05.647Z,24.50
2023-06-19T08:05:32.876Z,24.50
2023-06-19T08:08:00.926Z,24.60
2023-06-19T08:10:28.126Z,24.40
2023-06-19T08:12:55.343Z,25.10
2023-06-19T08:15:22.476Z,24.50
2023-06-19T08:17:49.832Z,24.40
2023-06-19T08:20:16.988Z,24.50
2023-06-19T08:22:43.960Z,24.50
2023-06-19T08:25:11.012Z,24.40
2023-06-19T08:27:38.128Z,24.60
2023-06-19T08:30:05.872Z,24.60
2023-06-19T08:32:33.145Z,24.70
2023-06-19T08:35:00.139Z,24.60
2023-06-19T08:37:27.165Z,24.70
2023-06-19T08:39:54.207Z,24.80
2023-06-19T08:42:21.196Z,24.80
2023-06-19T08:44:48.369Z,25.30
2023-06-19T08:47:15.513Z,25.40
2023-06-19T08:49:43.568Z,24.90
2023-06-19T08:52:10.541Z,25.00
2023-06-19T08:54:45.113Z,24.70
2023-06-19T08:57:15.905Z,23.50
2023-06-19T08:59:51.244Z,25.20
2023-06-19T09:02:18.742Z,25.10
2023-06-19T09:04:45.777Z,24.90
2023-06-19T09:07:15.441Z,25.20
2023-06-19T09:09:47.990Z,25.10
2023-06-19T09:12:16.254Z,25.10
2023-06-19T09:14:46.981Z,25.00
2023-06-19T09:17:20.445Z,25.10
2023-06-19T09:19:52.537Z,26.20
2023-06-19T09:22:22.258Z,25.40
2023-06-19T09:24:52.993Z,25.30
2023-06-19T09:27:20.900Z,25.30
2023-06-19T09:29:50.594Z,25.10
2023-06-19T09:32:29.723Z,25.30
2023-06-19T09:35:01.794Z,25.50
2023-06-19T09:37:31.263Z,24.90
2023-06-19T09:40:11.261Z,25.30
2023-06-19T09:42:43.805Z,25.90
2023-06-19T09:45:27.626Z,25.50
2023-06-19T09:47:57.955Z,26.50
2023-06-19T09:50:40.088Z,25.50
2023-06-19T09:53:07.357Z,25.60
2023-06-19T09:55:35.531Z,25.00
2023-06-19T09:58:04.004Z,25.50
2023-06-19T10:00:33.350Z,25.40
2023-06-19T10:03:01.592Z,25.70
2023-06-19T10:05:33.081Z,25.60
2023-06-19T10:08:02.143Z,25.70
2023-06-19T10:10:33.178Z,25.70
2023-06-19T10:13:21.235Z,25.50
2023-06-19T10:15:49.232Z,25.80
2023-06-19T10:18:19.251Z,26.10
2023-06-19T10:20:47.762Z,26.00
2023-06-19T10:23:23.340Z,26.10
2023-06-19T10:25:59.964Z,26.10
2023-06-19T10:28:31.870Z,25.90
2023-06-19T10:31:01.775Z,28.40
2023-06-19T10:33:33.127Z,25.90
2023-06-19T10:36:01.377Z,25.80
2023-06-19T10:38:28.874Z,25.70
2023-06-19T10:40:55.872Z,25.90
2023-06-19T10:43:26.267Z,25.80
2023-06-19T10:45:53.598Z,25.80
2023-06-19T10:48:25.676Z,25.80
2023-06-19T10:50:53.169Z,25.50
2023-06-19T10:53:31.110Z,25.80
2023-06-19T10:56:00.659Z,24.70
2023-06-19T10:58:29.484Z,26.00
2023-06-19T11:00:58.021Z,26.50
2023-06-19T11:03:25.390Z,26.50
2023-06-19T11:05:52.880Z,26.70
2023-06-19T11:08:22.497Z,26.30
2023-06-19T11:10:50.980Z,27.10
2023-06-19T11:13:22.124Z,27.00
2023-06-19T11:15:53.166Z,26.60
2023-06-19T11:18:20.814Z,26.50
2023-06-19T11:20:51.930Z,26.60
2023-06-19T11:23:30.088Z,27.10
2023-06-19T11:26:05.702Z,25.80
2023-06-19T11:28:33.166Z,26.40
2023-06-19T11:31:04.795Z,26.70
2023-06-19T11:33:31.962Z,27.10
2023-06-19T11:36:02.694Z,27.30
2023-06-19T11:38:30.548Z,27.50
2023-06-19T11:40:58.219Z,27.70
2023-06-19T11:43:32.703Z,27.50
2023-06-19T11:46:08.880Z,27.60
2023-06-19T11:48:40.108Z,29.30
2023-06-19T11:51:07.207Z,28.10
2023-06-19T11:53:35.583Z,27.90
2023-06-19T11:56:02.996Z,27.60
2023-06-19T11:58:30.196Z,27.60
2023-06-19T12:00:57.617Z,28.10
2023-06-19T12:03:24.995Z,28.20
2023-06-19T12:05:52.366Z,27.60
2023-06-19T12:08:19.590Z,27.40
2023-06-19T12:10:46.588Z,28.00
2023-06-19T12:13:13.603Z,28.10
2023-06-19T12:15:40.750Z,28.40
2023-06-19T12:18:08.991Z,28.40
2023-06-19T12:20:36.222Z,28.30
2023-06-19T12:23:03.925Z,27.90
2023-06-19T12:27:58.260Z,28.10
2023-06-19T12:30:26.520Z,28.10
2023-06-19T12:32:54.008Z,27.70
2023-06-19T12:35:21.846Z,28.20
2023-06-19T12:37:48.943Z,27.90
2023-06-19T12:40:16.260Z,28.50
2023-06-19T12:42:44.525Z,28.60
2023-06-19T12:45:11.841Z,28.70
2023-06-19T12:47:39.250Z,28.70
2023-06-19T12:50:06.933Z,28.50
2023-06-19T12:52:33.926Z,28.50
2023-06-19T12:55:02.341Z,28.10
2023-06-19T12:57:29.417Z,29.90
2023-06-19T12:59:56.421Z,28.70
2023-06-19T13:02:24.208Z,28.80
2023-06-19T13:04:51.460Z,28.80
2023-06-19T13:07:18.508Z,28.70
2023-06-19T13:09:45.480Z,29.00
2023-06-19T13:12:12.507Z,29.00
2023-06-19T13:14:39.574Z,28.90
2023-06-19T13:17:07.315Z,28.60
2023-06-19T13:19:35.219Z,29.30
2023-06-19T13:22:02.392Z,29.00
2023-06-19T13:24:29.461Z,29.70
2023-06-19T13:26:56.491Z,29.10
2023-06-19T13:29:23.653Z,30.00
2023-06-19T13:31:50.678Z,30.00
2023-06-19T13:34:19.640Z,29.60
2023-06-19T13:36:46.643Z,29.10
2023-06-19T13:39:13.680Z,29.00
2023-06-19T13:41:40.944Z,29.20
2023-06-19T13:44:08.475Z,29.50
2023-06-19T13:46:35.599Z,29.30
2023-06-19T13:49:02.674Z,29.70
2023-06-19T13:51:29.849Z,30.80
2023-06-19T13:53:56.973Z,30.10
2023-06-19T13:56:27.098Z,30.70
2023-06-19T13:58:54.137Z,30.50
2023-06-19T14:01:21.205Z,30.60
2023-06-19T14:03:48.353Z,30.60
2023-06-19T14:06:15.421Z,30.70
2023-06-19T14:08:44.161Z,30.10
2023-06-19T14:11:11.192Z,29.90
2023-06-19T14:13:38.507Z,30.00
2023-06-19T14:16:05.500Z,30.10
2023-06-19T14:18:32.568Z,30.40
2023-06-19T14:20:59.649Z,30.70
2023-06-19T14:23:26.686Z,29.80
2023-06-19T14:25:53.941Z,30.30
2023-06-19T14:28:21.196Z,29.90
2023-06-19T14:30:48.401Z,30.00
2023-06-19T14:33:18.450Z,30.00
2023-06-19T14:35:47.107Z,30.00
2023-06-19T14:38:15.384Z,30.00
2023-06-19T14:40:45.841Z,30.10
2023-06-19T14:43:12.921Z,29.90
2023-06-19T14:45:41.268Z,30.40
2023-06-19T14:48:08.501Z,29.80
2023-06-19T14:50:36.602Z,30.20
2023-06-19T14:53:03.718Z,30.00
2023-06-19T14:55:30.993Z,30.00
2023-06-19T14:57:58.338Z,30.10
2023-06-19T15:00:26.084Z,29.10
2023-06-19T15:02:53.448Z,30.10
2023-06-19T15:05:20.685Z,30.40
2023-06-19T15:07:47.946Z,29.80
2023-06-19T15:10:15.125Z,29.80
2023-06-19T15:12:42.130Z,29.60
2023-06-19T15:15:09.803Z,29.80
2023-06-19T15:17:36.771Z,29.70
2023-06-19T15:20:05.265Z,29.80
2023-06-19T15:22:32.300Z,29.70
2023-06-19T15:24:59.342Z,29.80
2023-06-19T15:27:26.425Z,29.80
2023-06-19T15:29:53.388Z,30.00
2023-06-19T15:32:20.462Z,29.90
2023-06-19T15:34:47.572Z,29.90
2023-06-19T15:37:14.699Z,28.80
2023-06-19T15:39:43.107Z,29.90
2023-06-19T15:42:10.615Z,29.60
2023-06-19T15:44:37.844Z,29.90
2023-06-19T15:47:05.009Z,30.00
2023-06-19T15:49:31.978Z,30.20
2023-06-19T15:51:59.034Z,29.90
2023-06-19T15:54:26.350Z,29.80
2023-06-19T15:56:53.328Z,30.00
2023-06-19T15:59:20.460Z,29.90
2023-06-19T16:01:47.784Z,29.90
2023-06-19T16:04:15.349Z,30.00
2023-06-19T16:06:42.728Z,29.90
2023-06-19T16:09:09.781Z,31.40
2023-06-19T16:11:37.072Z,30.10
2023-06-19T16:14:04.050Z,30.00
2023-06-19T16:16:31.469Z,29.90
2023-06-19T16:18:58.556Z,29.90
2023-06-19T16:21:28.911Z,29.90
2023-06-19T16:23:56.033Z,30.00
2023-06-19T16:26:23.346Z,29.90
2023-06-19T16:28:51.973Z,29.90
2023-06-19T16:31:19.281Z,29.90
2023-06-19T16:33:46.994Z,29.90
2023-06-19T16:36:14.269Z,29.60
2023-06-19T16:38:41.610Z,29.70
2023-06-19T16:41:08.699Z,29.90
2023-06-19T16:43:35.843Z,29.80
2023-06-19T16:46:03.148Z,30.20
2023-06-19T16:48:30.391Z,28.50
2023-06-19T16:50:57.413Z,30.00
2023-06-19T16:53:24.523Z,29.90
2023-06-19T16:55:51.536Z,29.30
2023-06-19T16:58:18.802Z,29.10
2023-06-19T17:00:45.811Z,29.60
2023-06-19T17:03:14.077Z,29.60
2023-06-19T17:05:41.160Z,29.70
2023-06-19T17:08:08.399Z,29.70
2023-06-19T17:10:35.363Z,29.70
2023-06-19T17:15:31.849Z,29.70
2023-06-19T17:18:00.338Z,29.60
2023-06-19T17:20:28.476Z,29.60
2023-06-19T17:22:56.777Z,28.50
2023-06-19T17:25:23.900Z,29.50
2023-06-19T17:27:50.840Z,29.30
2023-06-19T17:30:17.940Z,29.40
2023-06-19T17:32:45.880Z,29.50
2023-06-19T17:35:13.342Z,29.40
2023-06-19T17:37:40.659Z,29.50
2023-06-19T17:40:13.979Z,29.50
2023-06-19T17:42:41.946Z,29.40
2023-06-19T17:45:10.412Z,29.40
2023-06-19T17:47:37.497Z,29.50
2023-06-19T17:50:05.039Z,29.20
2023-06-19T17:52:32.018Z,29.80
2023-06-19T17:54:59.096Z,29.40
2023-06-19T17:57:27.267Z,29.40
2023-06-19T17:59:55.406Z,29.20
2023-06-19T18:02:22.736Z,29.30
2023-06-19T18:04:49.984Z,29.50
2023-06-19T18:07:18.698Z,29.30
2023-06-19T18:12:18.282Z,29.10
2023-06-19T18:14:45.502Z,29.20
2023-06-19T18:17:13.070Z,28.70
2023-06-19T18:19:40.730Z,28.90
2023-06-19T18:22:07.766Z,29.30
2023-06-19T18:24:34.859Z,29.00
2023-06-19T18:27:02.065Z,28.90
2023-06-19T18:29:31.744Z,28.80
2023-06-19T18:31:59.140Z,29.00
2023-06-19T18:34:26.206Z,29.00
2023-06-19T18:36:53.243Z,29.20
2023-06-19T18:39:20.340Z,29.20
2023-06-19T18:46:42.936Z,29.00
2023-06-19T18:49:10.544Z,29.10
2023-06-19T18:51:37.533Z,28.90
2023-06-19T18:54:04.781Z,28.00
2023-06-19T18:56:31.890Z,28.90
2023-06-19T18:58:58.911Z,28.80
2023-06-19T19:01:26.274Z,30.40
2023-06-19T19:03:53.369Z,28.90
2023-06-19T19:06:20.659Z,26.50
2023-06-19T19:08:47.779Z,29.00
2023-06-19T19:11:15.098Z,29.00
2023-06-19T19:13:42.157Z,29.10
2023-06-19T19:16:09.189Z,29.00
2023-06-19T19:18:36.188Z,29.00
2023-06-19T19:21:03.280Z,29.10
2023-06-19T19:23:30.287Z,28.50
2023-06-19T19:25:57.389Z,28.60
2023-06-19T19:28:24.423Z,28.60
2023-06-19T19:30:51.787Z,28.90
2023-06-19T19:33:18.902Z,29.20
2023-06-19T19:38:16.066Z,28.70
2023-06-19T19:40:43.644Z,28.60
2023-06-19T19:43:13.384Z,28.90
2023-06-19T19:45:41.077Z,28.80
2023-06-19T19:48:08.197Z,28.90
2023-06-19T19:50:35.278Z,28.80
2023-06-19T19:53:02.292Z,27.30
2023-06-19T19:55:29.431Z,28.70
2023-06-19T19:57:59.668Z,28.60
2023-06-19T20:00:26.920Z,28.60
2023-06-19T20:02:54.299Z,28.50
2023-06-19T20:05:21.392Z,28.50
2023-06-19T20:07:48.389Z,28.40
2023-06-19T20:10:15.470Z,28.40
2023-06-19T20:12:42.619Z,28.40
2023-06-19T20:15:10.453Z,28.50
2023-06-19T20:17:37.741Z,28.50
2023-06-19T20:20:06.778Z,28.40
2023-06-19T20:22:34.045Z,28.30
2023-06-19T20:25:01.203Z,28.20
2023-06-19T20:27:28.334Z,28.30
2023-06-19T20:29:55.530Z,28.30
2023-06-19T20:32:22.877Z,28.50
2023-06-19T20:34:50.050Z,28.30
2023-06-19T20:37:17.074Z,28.20
2023-06-19T20:39:44.318Z,28.20
2023-06-19T20:42:11.368Z,28.20
2023-06-19T20:44:38.369Z,27.70
2023-06-19T20:47:05.795Z,28.10
2023-06-19T20:49:32.819Z,28.20
2023-06-19T20:51:59.786Z,27.80
2023-06-19T20:54:26.744Z,27.70
2023-06-19T20:56:53.722Z,29.00
2023-06-19T20:59:20.909Z,28.00
2023-06-19T21:01:47.900Z,28.10
2023-06-19T21:04:14.955Z,27.50
2023-06-19T21:06:42.091Z,28.10
2023-06-19T21:09:09.558Z,27.10
2023-06-19T21:11:36.827Z,27.90
2023-06-19T21:14:03.970Z,27.80
2023-06-19T21:16:31.246Z,27.80
2023-06-19T21:18:58.381Z,27.80
2023-06-19T21:21:25.581Z,27.90
2023-06-19T21:23:52.615Z,28.00
2023-06-19T21:26:19.740Z,27.80
2023-06-19T21:28:46.738Z,27.70
2023-06-19T21:31:16.276Z,27.70
2023-06-19T21:33:43.268Z,27.90
2023-06-19T21:36:10.580Z,27.60
2023-06-19T21:38:37.671Z,27.70
2023-06-19T21:41:04.772Z,26.80
2023-06-19T21:43:31.957Z,27.40
2023-06-19T21:45:59.656Z,27.30
2023-06-19T21:48:27.334Z,27.50
2023-06-19T21:50:54.976Z,27.50
2023-06-19T21:53:22.851Z,27.50
2023-06-19T21:55:50.016Z,29.10
2023-06-19T21:58:17.071Z,27.50
2023-06-19T22:00:44.135Z,27.30
2023-06-19T22:03:11.389Z,26.70
2023-06-19T22:05:38.536Z,27.60
2023-06-19T22:08:05.694Z,26.90
2023-06-19T22:10:33.368Z,27.40
2023-06-19T22:13:00.504Z,27.30
2023-06-19T22:15:27.654Z,27.40
2023-06-19T22:17:54.762Z,27.20
2023-06-19T22:20:21.921Z,27.20
2023-06-19T22:22:49.564Z,27.20
2023-06-19T22:25:17.379Z,27.30
2023-06-19T22:27:46.482Z,27.10
2023-06-19T22:30:15.299Z,27.30
2023-06-19T22:32:42.951Z,27.10
2023-06-19T22:35:10.264Z,29.30
2023-06-19T22:37:38.546Z,26.80
2023-06-19T22:40:08.856Z,27.40
2023-06-19T22:42:39.162Z,27.00
2023-06-19T22:45:15.143Z,26.80
2023-06-19T22:47:42.333Z,27.10
2023-06-19T22:50:11.384Z,26.90
2023-06-19T22:52:38.965Z,27.10
2023-06-19T22:55:06.889Z,26.80
2023-06-19T22:57:38.015Z,26.90
2023-06-19T23:00:14.610Z,26.80
2023-06-19T23:02:43.768Z,26.70
2023-06-19T23:05:12.442Z,26.80
2023-06-19T23:07:40.288Z,26.70
2023-06-19T23:10:11.009Z,26.50
2023-06-19T23:12:38.920Z,26.80
2023-06-19T23:15:10.034Z,26.70
2023-06-19T23:17:37.244Z,26.60
2023-06-19T23:20:12.406Z,27.00
2023-06-19T23:22:40.840Z,26.60
2023-06-19T23:25:08.922Z,26.60
2023-06-19T23:27:38.611Z,26.30
2023-06-19T23:30:06.683Z,26.40
2023-06-19T23:32:34.071Z,26.60
2023-06-19T23:35:01.078Z,26.60
2023-06-19T23:37:28.198Z,26.50
2023-06-19T23:39:55.215Z,25.60
2023-06-19T23:42:22.258Z,26.30
2023-06-19T23:44:49.346Z,26.50
2023-06-19T23:47:16.290Z,26.40
2023-06-19T23:49:44.278Z,26.40
2023-06-19T23:52:11.369Z,26.20
2023-06-19T23:54:38.353Z,26.40
2023-06-19T23:57:08.717Z,26.00
2023-06-19T23:59:36.135Z,26.30
